createdAt,value
2017-11-19T00:00:20.134Z,5.38
2017-11-19T00:01:20.068Z,5.49
2017-11-19T00:02:20.008Z,5.47
2017-11-19T00:03:19.949Z,5.49
2017-11-19T00:04:19.888Z,5.47
2017-11-19T00:05:19.833Z,5.58
2017-11-19T00:06:19.755Z,5.52
2017-11-19T00:07:19.694Z,5.48
2017-11-19T00:08:19.621Z,5.59
2017-11-19T00:09:19.565Z,5.51
2017-11-19T00:10:19.499Z,5.47
2017-11-19T00:11:19.441Z,5.48
2017-11-19T00:12:19.385Z,5.49
2017-11-19T00:13:19.330Z,5.58
2017-11-19T00:14:19.246Z,5.59
2017-11-19T00:15:19.178Z,5.56
2017-11-19T00:16:19.114Z,5.63
2017-11-19T00:17:19.055Z,5.60
2017-11-19T00:18:18.993Z,5.56
2017-11-19T00:19:18.938Z,5.56
2017-11-19T00:20:18.883Z,5.59
2017-11-19T00:21:18.800Z,5.48
2017-11-19T00:22:18.741Z,5.58
2017-11-19T00:23:18.682Z,5.56
2017-11-19T00:24:18.613Z,5.65
2017-11-19T00:25:18.551Z,5.51
2017-11-19T00:26:18.490Z,5.63
2017-11-19T00:27:18.434Z,5.65
2017-11-19T00:28:18.364Z,5.58
2017-11-19T00:29:18.295Z,5.60
2017-11-19T00:30:18.229Z,5.58
2017-11-19T00:31:18.164Z,5.63
2017-11-19T00:32:18.104Z,5.56
2017-11-19T00:33:18.044Z,5.63
2017-11-19T00:34:17.982Z,5.66
2017-11-19T00:35:17.932Z,5.69
2017-11-19T00:36:17.852Z,5.62
2017-11-19T00:37:17.789Z,5.70
2017-11-19T00:38:17.719Z,5.67
2017-11-19T00:39:17.665Z,5.65
2017-11-19T00:40:17.601Z,5.58
2017-11-19T00:41:17.536Z,5.60
2017-11-19T00:42:17.469Z,5.59
2017-11-19T00:43:17.426Z,5.65
2017-11-19T00:44:17.349Z,5.63
2017-11-19T00:45:17.296Z,5.69
2017-11-19T00:46:17.219Z,5.67
2017-11-19T00:47:17.156Z,5.55
2017-11-19T00:48:17.093Z,5.56
2017-11-19T00:49:17.037Z,5.60
2017-11-19T00:50:16.966Z,5.56
2017-11-19T00:51:16.908Z,5.51
2017-11-19T00:52:16.840Z,5.52
2017-11-19T00:53:16.769Z,5.40
2017-11-19T00:54:16.709Z,5.40
2017-11-19T00:55:16.649Z,5.52
2017-11-19T00:56:16.589Z,5.51
2017-11-19T00:57:16.533Z,5.51
2017-11-19T00:58:16.479Z,5.52
2017-11-19T00:59:16.394Z,5.52
2017-11-19T01:00:16.333Z,5.58
2017-11-19T01:01:16.264Z,5.55
2017-11-19T01:02:16.203Z,5.55
2017-11-19T01:03:16.148Z,5.51
2017-11-19T01:04:16.085Z,5.58
2017-11-19T01:05:16.031Z,5.52
2017-11-19T01:06:15.955Z,5.49
2017-11-19T01:07:15.893Z,5.56
2017-11-19T01:08:15.827Z,5.56
2017-11-19T01:09:15.759Z,5.56
2017-11-19T01:10:15.699Z,5.55
2017-11-19T01:11:15.638Z,5.47
2017-11-19T01:12:15.572Z,5.52
2017-11-19T01:13:15.528Z,5.55
2017-11-19T01:14:15.456Z,5.52
2017-11-19T01:15:15.382Z,5.48
2017-11-19T01:16:15.313Z,5.48
2017-11-19T01:17:15.255Z,5.44
2017-11-19T01:18:15.195Z,5.42
2017-11-19T01:19:15.135Z,5.44
2017-11-19T01:20:15.079Z,5.41
2017-11-19T01:21:15.003Z,5.40
2017-11-19T01:22:14.939Z,5.41
2017-11-19T01:23:14.872Z,5.40
2017-11-19T01:24:14.808Z,5.29
2017-11-19T01:25:14.748Z,5.35
2017-11-19T01:26:14.688Z,5.37
2017-11-19T01:27:14.632Z,5.37
2017-11-19T01:28:14.577Z,5.24
2017-11-19T01:29:14.507Z,5.38
2017-11-19T01:30:14.435Z,5.26
2017-11-19T01:31:14.390Z,5.38
2017-11-19T01:32:14.302Z,5.27
2017-11-19T01:33:14.241Z,5.19
2017-11-19T01:34:14.184Z,5.26
2017-11-19T01:35:14.129Z,5.33
2017-11-19T01:36:14.053Z,5.35
2017-11-19T01:37:13.987Z,5.26
2017-11-19T01:38:13.918Z,5.24
2017-11-19T01:39:13.859Z,5.23
2017-11-19T01:40:13.798Z,5.26
2017-11-19T01:41:13.753Z,5.30
2017-11-19T01:42:13.681Z,5.29
2017-11-19T01:43:13.629Z,5.26
2017-11-19T01:44:13.547Z,5.32
2017-11-19T01:45:13.481Z,5.19
2017-11-19T01:46:13.411Z,5.27
2017-11-19T01:47:13.352Z,5.19
2017-11-19T01:48:13.292Z,5.11
2017-11-19T01:49:13.227Z,5.14
2017-11-19T01:50:13.179Z,5.04
2017-11-19T01:51:13.101Z,5.06
2017-11-19T01:52:13.036Z,5.09
2017-11-19T01:53:12.966Z,5.04
2017-11-19T01:54:12.904Z,5.06
2017-11-19T01:55:12.845Z,5.11
2017-11-19T01:56:12.789Z,5.06
2017-11-19T01:57:12.731Z,5.06
2017-11-19T01:58:12.656Z,5.05
2017-11-19T01:59:12.591Z,4.91
2017-11-19T02:00:12.526Z,4.93
2017-11-19T02:01:12.458Z,4.91
2017-11-19T02:02:12.397Z,4.88
2017-11-19T02:03:12.340Z,4.93
2017-11-19T02:04:12.286Z,4.91
2017-11-19T02:05:12.228Z,5.04
2017-11-19T02:06:12.146Z,4.91
2017-11-19T02:07:12.082Z,5.06
2017-11-19T02:08:12.019Z,4.93
2017-11-19T02:09:11.953Z,4.88
2017-11-19T02:10:11.892Z,5.05
2017-11-19T02:11:11.836Z,4.93
2017-11-19T02:12:11.780Z,4.93
2017-11-19T02:13:11.698Z,4.97
2017-11-19T02:14:11.636Z,5.01
2017-11-19T02:15:11.566Z,4.88
2017-11-19T02:16:11.505Z,4.90
2017-11-19T02:17:11.453Z,5.01
2017-11-19T02:18:11.388Z,4.91
2017-11-19T02:19:11.332Z,4.99
2017-11-19T02:20:11.256Z,4.91
2017-11-19T02:21:11.193Z,5.04
2017-11-19T02:22:11.125Z,5.04
2017-11-19T02:23:11.059Z,5.09
2017-11-19T02:24:10.998Z,5.06
2017-11-19T02:25:10.940Z,5.06
2017-11-19T02:26:10.884Z,5.04
2017-11-19T02:27:10.806Z,5.05
2017-11-19T02:28:10.743Z,5.08
2017-11-19T02:29:10.672Z,5.08
2017-11-19T02:30:10.612Z,5.05
2017-11-19T02:31:10.563Z,5.11
2017-11-19T02:32:10.501Z,5.06
2017-11-19T02:33:10.435Z,5.02
2017-11-19T02:34:10.353Z,5.06
2017-11-19T02:35:10.298Z,5.02
2017-11-19T02:36:10.226Z,5.06
2017-11-19T02:37:10.165Z,5.04
2017-11-19T02:38:10.104Z,5.04
2017-11-19T02:39:10.047Z,5.05
2017-11-19T02:40:09.993Z,5.09
2017-11-19T02:41:09.913Z,5.05
2017-11-19T02:42:09.851Z,4.97
2017-11-19T02:43:09.794Z,4.87
2017-11-19T02:44:09.716Z,4.97
2017-11-19T02:45:09.657Z,4.96
2017-11-19T02:46:09.599Z,4.96
2017-11-19T02:47:09.543Z,4.99
2017-11-19T02:48:09.485Z,4.87
2017-11-19T02:49:09.405Z,4.88
2017-11-19T02:50:09.341Z,4.84
2017-11-19T02:51:09.278Z,4.86
2017-11-19T02:52:09.213Z,4.79
2017-11-19T02:53:09.149Z,4.77
2017-11-19T02:54:09.096Z,4.80
2017-11-19T02:55:09.037Z,4.87
2017-11-19T02:56:08.960Z,4.87
2017-11-19T02:57:08.892Z,4.84
2017-11-19T02:58:08.823Z,4.75
2017-11-19T02:59:08.769Z,4.83
2017-11-19T03:00:08.710Z,4.84
2017-11-19T03:01:08.644Z,4.87
2017-11-19T03:02:08.590Z,4.86
2017-11-19T03:03:08.509Z,4.80
2017-11-19T03:04:08.445Z,4.80
2017-11-19T03:05:08.376Z,4.83
2017-11-19T03:06:08.313Z,4.83
2017-11-19T03:07:08.253Z,4.79
2017-11-19T03:08:08.195Z,4.77
2017-11-19T03:09:08.141Z,4.80
2017-11-19T03:10:08.062Z,4.88
2017-11-19T03:11:07.997Z,4.86
2017-11-19T03:12:07.928Z,4.88
2017-11-19T03:13:07.866Z,4.90
2017-11-19T03:14:07.807Z,4.90
2017-11-19T03:15:07.748Z,4.96
2017-11-19T03:16:07.693Z,5.01
2017-11-19T03:17:07.613Z,5.06
2017-11-19T03:18:07.551Z,5.01
2017-11-19T03:19:07.478Z,4.90
2017-11-19T03:20:07.435Z,4.97
2017-11-19T03:21:07.356Z,4.91
2017-11-19T03:22:07.299Z,4.93
2017-11-19T03:23:07.245Z,4.91
2017-11-19T03:24:07.170Z,4.93
2017-11-19T03:25:07.105Z,4.86
2017-11-19T03:26:07.030Z,4.93
2017-11-19T03:27:06.971Z,5.09
2017-11-19T03:28:06.909Z,5.09
2017-11-19T03:29:06.852Z,5.11
2017-11-19T03:30:06.784Z,4.97
2017-11-19T03:31:06.722Z,5.08
2017-11-19T03:32:06.653Z,5.09
2017-11-19T03:33:06.582Z,5.08
2017-11-19T03:34:06.524Z,5.04
2017-11-19T03:35:06.464Z,5.05
2017-11-19T03:36:06.410Z,4.97
2017-11-19T03:37:06.351Z,5.06
2017-11-19T03:38:06.269Z,5.01
2017-11-19T03:39:06.207Z,4.97
2017-11-19T03:40:06.145Z,4.90
2017-11-19T03:41:06.078Z,5.04
2017-11-19T03:42:06.018Z,4.97
2017-11-19T03:43:05.952Z,4.96
2017-11-19T03:44:05.901Z,4.90
2017-11-19T03:45:05.823Z,5.01
2017-11-19T03:46:05.760Z,4.91
2017-11-19T03:47:05.690Z,4.97
2017-11-19T03:48:05.635Z,5.01
2017-11-19T03:49:05.566Z,4.96
2017-11-19T03:50:05.510Z,4.97
2017-11-19T03:51:05.457Z,5.06
2017-11-19T03:52:05.377Z,5.05
2017-11-19T03:53:05.307Z,4.93
2017-11-19T03:54:05.246Z,5.04
2017-11-19T03:55:05.181Z,5.02
2017-11-19T03:56:05.122Z,5.01
2017-11-19T03:57:05.062Z,5.08
2017-11-19T03:58:05.005Z,5.04
2017-11-19T03:59:04.931Z,5.04
2017-11-19T04:00:04.866Z,5.05
2017-11-19T04:01:04.803Z,5.08
2017-11-19T04:02:04.734Z,5.11
2017-11-19T04:03:04.672Z,5.06
2017-11-19T04:04:04.614Z,5.11
2017-11-19T04:05:04.557Z,5.02
2017-11-19T04:06:04.502Z,5.09
2017-11-19T04:07:04.419Z,5.08
2017-11-19T04:08:04.357Z,5.11
2017-11-19T04:09:04.287Z,5.04
2017-11-19T04:10:04.226Z,5.08
2017-11-19T04:11:04.166Z,5.11
2017-11-19T04:12:04.109Z,5.06
2017-11-19T04:13:04.054Z,5.08
2017-11-19T04:14:03.971Z,5.04
2017-11-19T04:15:03.909Z,5.09
2017-11-19T04:16:03.848Z,5.08
2017-11-19T04:17:03.778Z,5.06
2017-11-19T04:18:03.719Z,5.04
2017-11-19T04:19:03.661Z,5.06
2017-11-19T04:20:03.597Z,5.06
2017-11-19T04:21:03.533Z,5.09
2017-11-19T04:22:03.462Z,5.09
2017-11-19T04:23:03.415Z,5.15
2017-11-19T04:24:03.332Z,5.19
2017-11-19T04:25:03.271Z,5.20
2017-11-19T04:26:03.213Z,5.11
2017-11-19T04:27:03.159Z,5.14
2017-11-19T04:28:03.081Z,5.12
2017-11-19T04:29:03.015Z,5.09
2017-11-19T04:30:02.954Z,5.17
2017-11-19T04:31:02.885Z,5.24
2017-11-19T04:32:02.831Z,5.17
2017-11-19T04:33:02.766Z,5.12
2017-11-19T04:34:02.709Z,5.15
2017-11-19T04:35:02.633Z,5.23
2017-11-19T04:36:02.568Z,5.22
2017-11-19T04:37:02.497Z,5.20
2017-11-19T04:38:02.442Z,5.08
2017-11-19T04:39:02.379Z,5.15
2017-11-19T04:40:02.317Z,5.17
2017-11-19T04:41:02.261Z,5.15
2017-11-19T04:42:02.194Z,5.20
2017-11-19T04:43:02.122Z,5.23
2017-11-19T04:44:02.058Z,5.15
2017-11-19T04:45:01.991Z,5.22
2017-11-19T04:46:01.929Z,5.12
2017-11-19T04:47:01.871Z,5.15
2017-11-19T04:48:01.814Z,5.17
2017-11-19T04:49:01.760Z,5.12
2017-11-19T04:50:01.676Z,5.14
2017-11-19T04:51:01.610Z,5.20
2017-11-19T04:52:01.543Z,5.24
2017-11-19T04:53:01.482Z,5.17
2017-11-19T04:54:01.431Z,5.15
2017-11-19T04:55:01.366Z,5.15
2017-11-19T04:56:01.311Z,5.11
2017-11-19T04:57:01.224Z,5.17
2017-11-19T04:58:01.166Z,5.12
2017-11-19T04:59:01.098Z,5.15
2017-11-19T05:00:01.037Z,5.17
2017-11-19T05:01:00.975Z,5.24
2017-11-19T05:02:00.918Z,5.11
2017-11-19T05:03:00.864Z,5.20
2017-11-19T05:04:00.784Z,5.04
2017-11-19T05:05:00.720Z,5.11
2017-11-19T05:06:00.649Z,5.24
2017-11-19T05:07:00.589Z,5.24
2017-11-19T05:08:00.529Z,5.27
2017-11-19T05:09:00.470Z,5.17
2017-11-19T05:10:00.400Z,5.27
2017-11-19T05:11:00.338Z,5.24
2017-11-19T05:12:00.274Z,5.20
2017-11-19T05:13:00.203Z,5.17
2017-11-19T05:14:00.141Z,5.20
2017-11-19T05:15:00.082Z,5.22
2017-11-19T05:16:00.023Z,5.17
2017-11-19T05:16:59.967Z,5.14
2017-11-19T05:17:59.914Z,5.17
2017-11-19T05:18:59.827Z,5.09
2017-11-19T05:19:59.764Z,5.05
2017-11-19T05:20:59.697Z,5.08
2017-11-19T05:21:59.634Z,5.17
2017-11-19T05:22:59.574Z,5.04
2017-11-19T05:23:59.519Z,5.06
2017-11-19T05:24:59.471Z,5.02
2017-11-19T05:25:59.384Z,5.05
2017-11-19T05:26:59.317Z,4.93
2017-11-19T05:27:59.248Z,4.97
2017-11-19T05:28:59.188Z,4.97
2017-11-19T05:29:59.128Z,5.08
2017-11-19T05:30:59.071Z,5.09
2017-11-19T05:31:59.016Z,5.01
2017-11-19T05:32:58.945Z,5.11
2017-11-19T05:33:58.870Z,5.08
2017-11-19T05:34:58.838Z,5.06
2017-11-19T05:35:58.744Z,5.06
2017-11-19T05:36:58.680Z,5.01
2017-11-19T05:37:58.623Z,4.91
2017-11-19T05:38:58.569Z,4.99
2017-11-19T05:39:58.489Z,4.93
2017-11-19T05:40:58.424Z,4.86
2017-11-19T05:41:58.359Z,4.91
2017-11-19T05:42:58.294Z,4.91
2017-11-19T05:43:58.233Z,4.93
2017-11-19T05:44:58.174Z,4.96
2017-11-19T05:45:58.121Z,4.87
2017-11-19T05:46:58.043Z,4.93
2017-11-19T05:47:57.976Z,4.99
2017-11-19T05:48:57.906Z,4.97
2017-11-19T05:49:57.846Z,5.01
2017-11-19T05:50:57.786Z,5.09
2017-11-19T05:51:57.731Z,5.05
2017-11-19T05:52:57.671Z,4.99
2017-11-19T05:53:57.594Z,5.02
2017-11-19T05:54:57.531Z,5.02
2017-11-19T05:55:57.461Z,5.09
2017-11-19T05:56:57.401Z,5.04
2017-11-19T05:57:57.339Z,5.05
2017-11-19T05:58:57.279Z,5.06
2017-11-19T05:59:57.224Z,5.11
2017-11-19T06:00:57.146Z,5.11
2017-11-19T06:01:57.084Z,5.17
2017-11-19T06:02:57.023Z,5.09
2017-11-19T06:03:56.954Z,5.04
2017-11-19T06:04:56.893Z,5.06
2017-11-19T06:05:56.830Z,5.05
2017-11-19T06:06:56.777Z,5.08
2017-11-19T06:07:56.700Z,5.17
2017-11-19T06:08:56.637Z,5.12
2017-11-19T06:09:56.565Z,5.15
2017-11-19T06:10:56.503Z,5.14
2017-11-19T06:11:56.444Z,5.15
2017-11-19T06:12:56.389Z,5.14
2017-11-19T06:13:56.327Z,5.08
2017-11-19T06:14:56.279Z,5.15
2017-11-19T06:15:56.191Z,5.09
2017-11-19T06:16:56.129Z,5.06
2017-11-19T06:17:56.057Z,5.23
2017-11-19T06:18:56.000Z,5.17
2017-11-19T06:19:55.936Z,5.06
2017-11-19T06:20:55.880Z,5.09
2017-11-19T06:21:55.824Z,5.14
2017-11-19T06:22:55.743Z,5.15
2017-11-19T06:23:55.679Z,5.06
2017-11-19T06:24:55.611Z,5.22
2017-11-19T06:25:55.551Z,5.30
2017-11-19T06:26:55.489Z,5.29
2017-11-19T06:27:55.437Z,5.20
2017-11-19T06:28:55.360Z,5.23
2017-11-19T06:29:55.296Z,5.23
2017-11-19T06:30:55.233Z,5.29
2017-11-19T06:31:55.163Z,5.27
2017-11-19T06:32:55.102Z,5.30
2017-11-19T06:33:55.043Z,5.23
2017-11-19T06:34:54.984Z,5.37
2017-11-19T06:35:54.929Z,5.27
2017-11-19T06:36:54.857Z,5.29
2017-11-19T06:37:54.790Z,5.41
2017-11-19T06:38:54.717Z,5.41
2017-11-19T06:39:54.656Z,5.37
2017-11-19T06:40:54.596Z,5.33
2017-11-19T06:41:54.537Z,5.45
2017-11-19T06:42:54.480Z,5.38
2017-11-19T06:43:54.405Z,5.42
2017-11-19T06:44:54.341Z,5.38
2017-11-19T06:45:54.271Z,5.45
2017-11-19T06:46:54.214Z,5.41
2017-11-19T06:47:54.149Z,5.41
2017-11-19T06:48:54.090Z,5.37
2017-11-19T06:49:54.032Z,5.40
2017-11-19T06:50:53.961Z,5.44
2017-11-19T06:51:53.897Z,5.45
2017-11-19T06:52:53.831Z,5.44
2017-11-19T06:53:53.764Z,5.44
2017-11-19T06:54:53.703Z,5.35
2017-11-19T06:55:53.645Z,5.47
2017-11-19T06:56:53.584Z,5.40
2017-11-19T06:57:53.529Z,5.48
2017-11-19T06:58:53.464Z,5.48
2017-11-19T06:59:53.388Z,5.56
2017-11-19T07:00:53.319Z,5.55
2017-11-19T07:01:53.256Z,5.42
2017-11-19T07:02:53.200Z,5.49
2017-11-19T07:03:53.137Z,5.41
2017-11-19T07:04:53.081Z,5.56
2017-11-19T07:05:53.006Z,5.48
2017-11-19T07:06:52.947Z,5.59
2017-11-19T07:07:52.881Z,5.56
2017-11-19T07:08:52.814Z,5.59
2017-11-19T07:09:52.752Z,5.62
2017-11-19T07:10:52.690Z,5.62
2017-11-19T07:11:52.634Z,5.69
2017-11-19T07:12:52.579Z,5.70
2017-11-19T07:13:52.499Z,5.66
2017-11-19T07:14:52.437Z,5.67
2017-11-19T07:15:52.372Z,5.67
2017-11-19T07:16:52.307Z,5.65
2017-11-19T07:17:52.247Z,5.66
2017-11-19T07:18:52.187Z,5.75
2017-11-19T07:19:52.130Z,5.75
2017-11-19T07:20:52.076Z,5.69
2017-11-19T07:21:51.993Z,5.73
2017-11-19T07:22:51.931Z,5.81
2017-11-19T07:23:51.862Z,5.69
2017-11-19T07:24:51.801Z,5.74
2017-11-19T07:25:51.741Z,5.69
2017-11-19T07:26:51.683Z,5.73
2017-11-19T07:27:51.616Z,5.74
2017-11-19T07:28:51.550Z,5.75
2017-11-19T07:29:51.486Z,5.88
2017-11-19T07:30:51.418Z,5.87
2017-11-19T07:31:51.357Z,5.88
2017-11-19T07:32:51.297Z,5.88
2017-11-19T07:33:51.238Z,5.95
2017-11-19T07:34:51.165Z,5.95
2017-11-19T07:35:51.126Z,6.03
2017-11-19T07:36:51.045Z,6.05
2017-11-19T07:37:50.984Z,6.13
2017-11-19T07:38:50.915Z,6.05
2017-11-19T07:39:50.857Z,6.10
2017-11-19T07:40:50.792Z,6.08
2017-11-19T07:41:50.733Z,6.17
2017-11-19T07:42:50.674Z,6.27
2017-11-19T07:43:50.623Z,6.13
2017-11-19T07:45:08.409Z,6.19
2017-11-19T07:46:43.334Z,6.11
2017-11-19T07:47:43.238Z,5.96
2017-11-19T07:49:36.000Z,6.11
2017-11-19T07:50:35.926Z,6.17
2017-11-19T07:52:28.704Z,6.14
2017-11-19T07:53:28.640Z,6.27
2017-11-19T07:55:21.391Z,6.10
2017-11-19T07:56:21.328Z,6.10
2017-11-19T07:58:14.107Z,6.08
2017-11-19T07:59:14.024Z,6.14
2017-11-19T08:01:06.805Z,6.28
2017-11-19T08:02:06.768Z,6.30
2017-11-19T08:03:59.504Z,6.39
2017-11-19T08:05:00.119Z,6.38
2017-11-19T08:06:53.351Z,6.32
2017-11-19T08:07:53.254Z,6.43
2017-11-19T08:09:47.867Z,6.45
2017-11-19T08:10:47.860Z,6.46
2017-11-19T08:12:41.329Z,6.61
2017-11-19T08:13:42.637Z,6.64
2017-11-19T08:15:35.081Z,6.60
2017-11-19T08:16:34.877Z,6.54
2017-11-19T11:42:32.864Z,7.50
2017-11-19T11:43:32.788Z,7.58
2017-11-19T11:45:25.546Z,7.55
2017-11-19T11:46:25.485Z,7.50
2017-11-19T11:48:18.254Z,7.47
2017-11-19T11:49:18.188Z,7.48
2017-11-19T11:51:10.947Z,7.44
2017-11-19T11:52:10.861Z,7.44
2017-11-19T11:54:03.638Z,7.39
2017-11-19T11:55:03.562Z,7.33
2017-11-19T11:56:56.323Z,7.32
2017-11-19T11:57:56.266Z,7.47
2017-11-19T11:59:49.031Z,7.44
2017-11-19T12:00:48.952Z,7.41
2017-11-19T12:02:41.751Z,7.37
2017-11-19T12:03:41.646Z,7.27
2017-11-19T12:05:34.410Z,7.37
2017-11-19T12:06:34.348Z,7.42
2017-11-19T12:08:27.115Z,7.33
2017-11-19T12:09:27.051Z,7.42
2017-11-19T12:11:19.810Z,7.34
2017-11-19T12:12:19.732Z,7.36
2017-11-19T12:14:13.526Z,7.47
2017-11-19T12:15:13.453Z,7.42
2017-11-19T12:17:06.247Z,7.33
2017-11-19T12:18:06.169Z,7.33
2017-11-19T12:19:58.900Z,7.32
2017-11-19T12:20:58.834Z,7.33
2017-11-19T12:22:51.601Z,7.37
2017-11-19T12:23:51.540Z,7.16
2017-11-19T12:25:44.336Z,7.14
2017-11-19T12:26:44.231Z,7.08
2017-11-19T12:28:37.098Z,7.14
2017-11-19T12:29:36.956Z,7.11
2017-11-19T12:31:29.767Z,7.15
2017-11-19T12:32:29.655Z,7.08
2017-11-19T12:34:22.473Z,6.96
2017-11-19T12:35:22.368Z,7.04
2017-11-19T12:37:15.185Z,7.11
2017-11-19T12:38:15.086Z,7.05
2017-11-19T12:39:15.030Z,7.12
2017-11-19T12:40:15.008Z,7.15
2017-11-19T12:41:14.897Z,7.16
2017-11-19T12:42:14.847Z,7.16
2017-11-19T12:43:14.793Z,7.15
2017-11-19T12:44:14.731Z,7.19
2017-11-19T12:45:14.686Z,7.18
2017-11-19T12:46:14.588Z,7.16
2017-11-19T12:47:14.526Z,7.11
2017-11-19T12:48:14.460Z,7.14
2017-11-19T12:49:14.398Z,7.08
2017-11-19T12:50:14.342Z,7.19
2017-11-19T12:51:14.280Z,7.19
2017-11-19T12:52:14.219Z,7.23
2017-11-19T12:53:14.168Z,7.19
2017-11-19T12:54:14.093Z,7.26
2017-11-19T12:55:14.030Z,7.21
2017-11-19T12:56:13.969Z,7.26
2017-11-19T12:57:13.901Z,7.21
2017-11-19T12:58:13.840Z,7.21
2017-11-19T12:59:13.784Z,7.26
2017-11-19T13:00:13.727Z,7.11
2017-11-19T13:01:13.665Z,7.14
2017-11-19T13:02:13.613Z,7.12
2017-11-19T13:03:13.560Z,7.18
2017-11-19T13:04:13.474Z,7.29
2017-11-19T13:05:13.412Z,7.24
2017-11-19T13:06:13.350Z,7.29
2017-11-19T13:07:13.289Z,7.26
2017-11-19T13:08:13.225Z,7.30
2017-11-19T13:09:13.186Z,7.29
2017-11-19T13:10:13.108Z,7.33
2017-11-19T13:11:13.052Z,7.27
2017-11-19T13:12:12.998Z,7.39
2017-11-19T13:13:12.944Z,7.42
2017-11-19T13:14:12.857Z,7.44
2017-11-19T13:15:12.795Z,7.58
2017-11-19T13:16:12.733Z,7.60
2017-11-19T13:17:12.676Z,7.57
2017-11-19T13:18:12.610Z,7.66
2017-11-19T13:19:12.566Z,7.66
2017-11-19T13:20:12.495Z,7.66
2017-11-19T13:21:12.426Z,7.52
2017-11-19T13:22:12.365Z,7.47
2017-11-19T13:23:12.304Z,7.62
2017-11-19T13:24:12.235Z,7.50
2017-11-19T13:25:12.174Z,7.57
2017-11-19T13:26:12.116Z,7.60
2017-11-19T13:27:12.059Z,7.69
2017-11-19T13:28:11.999Z,7.71
2017-11-19T13:29:11.940Z,7.82
2017-11-19T13:30:11.869Z,7.71
2017-11-19T13:31:11.830Z,7.70
2017-11-19T13:32:11.797Z,7.81
2017-11-19T13:33:11.689Z,7.77
2017-11-19T13:34:11.636Z,7.77
2017-11-19T13:35:11.558Z,7.76
2017-11-19T13:36:11.505Z,7.70
2017-11-19T13:37:11.452Z,7.67
2017-11-19T13:38:11.381Z,7.77
2017-11-19T13:39:11.318Z,7.57
2017-11-19T13:40:11.271Z,7.66
2017-11-19T13:41:11.194Z,7.67
2017-11-19T13:42:11.133Z,7.69
2017-11-19T13:43:11.073Z,7.71
2017-11-19T13:44:11.011Z,7.82
2017-11-19T13:45:10.947Z,7.77
2017-11-19T13:46:10.886Z,7.73
2017-11-19T13:47:10.825Z,7.71
2017-11-19T13:48:10.768Z,7.69
2017-11-19T13:49:10.713Z,7.62
2017-11-19T13:50:10.666Z,7.71
2017-11-19T13:51:10.588Z,7.76
2017-11-19T13:52:10.516Z,7.77
2017-11-19T13:53:10.464Z,7.84
2017-11-19T13:54:10.398Z,7.77
2017-11-19T13:55:10.347Z,7.81
2017-11-19T13:56:10.301Z,7.81
2017-11-19T13:57:10.213Z,7.74
2017-11-19T13:58:10.158Z,7.57
2017-11-19T13:59:10.102Z,7.63
2017-11-19T14:00:10.028Z,7.55
2017-11-19T14:01:09.966Z,7.57
2017-11-19T14:02:09.915Z,7.44
2017-11-19T14:03:09.836Z,7.47
2017-11-19T14:04:09.775Z,7.33
2017-11-19T14:05:09.717Z,7.48
2017-11-19T14:06:09.655Z,7.41
2017-11-19T14:07:09.599Z,7.47
2017-11-19T14:11:58.530Z,7.45
2017-11-19T14:12:58.444Z,7.42
2017-11-19T14:14:51.216Z,7.44
2017-11-19T14:15:51.132Z,7.39
2017-11-19T14:17:43.905Z,7.45
2017-11-19T14:18:43.839Z,7.44
2017-11-19T14:20:36.630Z,7.51
2017-11-19T14:21:36.557Z,7.63
2017-11-19T14:23:29.361Z,7.52
2017-11-19T14:24:29.292Z,7.55
2017-11-19T14:26:22.069Z,7.63
2017-11-19T14:27:22.000Z,7.50
2017-11-19T14:29:14.763Z,7.58
2017-11-19T14:30:14.699Z,7.57
2017-11-19T14:32:07.486Z,7.60
2017-11-19T14:33:07.408Z,7.47
2017-11-19T14:35:00.170Z,7.48
2017-11-19T14:36:00.107Z,7.52
2017-11-19T14:37:52.871Z,7.63
2017-11-19T14:38:52.812Z,7.63
2017-11-19T14:40:45.597Z,7.67
2017-11-19T14:41:45.523Z,7.57
2017-11-19T14:43:38.288Z,7.52
2017-11-19T14:44:38.225Z,7.69
2017-11-19T14:46:30.993Z,7.73
2017-11-19T14:47:30.924Z,7.81
2017-11-19T14:49:23.683Z,7.77
2017-11-19T14:50:23.628Z,7.79
2017-11-19T14:52:16.394Z,7.71
2017-11-19T14:53:16.335Z,7.58
2017-11-19T14:55:09.104Z,7.66
2017-11-19T14:56:09.013Z,7.66
2017-11-19T14:58:01.799Z,7.60
2017-11-19T14:59:01.705Z,7.57
2017-11-19T15:00:54.491Z,7.44
2017-11-19T15:01:54.412Z,7.44
2017-11-19T15:03:47.181Z,7.34
2017-11-19T15:04:47.119Z,7.47
2017-11-19T15:06:39.913Z,7.36
2017-11-19T15:07:39.858Z,7.32
2017-11-19T15:09:32.614Z,7.30
2017-11-19T15:10:32.530Z,7.32
2017-11-19T15:12:25.313Z,7.21
2017-11-19T15:13:25.237Z,7.19
2017-11-19T15:15:17.995Z,7.27
2017-11-19T15:16:17.932Z,7.23
2017-11-19T15:18:10.699Z,7.18
2017-11-19T15:19:10.622Z,7.24
2017-11-19T15:21:03.431Z,7.23
2017-11-19T15:22:03.335Z,7.11
2017-11-19T15:23:56.097Z,7.30
2017-11-19T15:24:56.026Z,7.32
2017-11-19T15:26:48.800Z,7.33
2017-11-19T15:27:48.723Z,7.39
2017-11-19T15:29:41.488Z,7.30
2017-11-19T15:30:41.424Z,7.36
2017-11-19T15:32:34.190Z,7.44
2017-11-19T15:33:34.166Z,7.47
2017-11-19T15:35:26.906Z,7.11
2017-11-19T15:36:26.838Z,7.19
2017-11-19T15:38:19.622Z,7.18
2017-11-19T15:39:19.536Z,7.07
2017-11-19T15:41:12.303Z,7.08
2017-11-19T15:42:12.245Z,7.01
2017-11-19T15:44:05.194Z,6.94
2017-11-19T15:45:05.129Z,6.87
2017-11-19T15:46:57.890Z,6.83
2017-11-19T15:47:57.812Z,6.69
2017-11-19T15:49:50.566Z,6.65
2017-11-19T15:50:50.503Z,6.75
2017-11-19T15:52:43.278Z,6.96
2017-11-19T15:53:43.195Z,6.93
2017-11-19T15:55:35.977Z,7.01
2017-11-19T15:56:35.914Z,6.99
2017-11-19T15:58:28.715Z,6.97
2017-11-19T15:59:28.605Z,6.97
2017-11-19T16:01:21.367Z,6.96
2017-11-19T16:02:21.306Z,7.11
2017-11-19T16:04:14.063Z,7.14
2017-11-19T16:05:13.999Z,7.09
2017-11-19T16:07:06.777Z,6.99
2017-11-19T16:08:06.696Z,7.11
2017-11-19T16:09:59.460Z,7.14
2017-11-19T16:10:59.400Z,7.15
2017-11-19T16:12:52.158Z,6.99
2017-11-19T16:13:52.108Z,6.99
2017-11-19T16:15:44.861Z,7.24
2017-11-19T16:16:44.807Z,7.07
2017-11-19T16:18:37.576Z,7.15
2017-11-19T16:19:37.491Z,7.16
2017-11-19T16:21:30.270Z,7.23
2017-11-19T16:22:30.188Z,7.19
2017-11-19T16:24:22.974Z,7.11
2017-11-19T16:25:22.886Z,7.05
2017-11-19T16:27:15.684Z,7.08
2017-11-19T16:28:15.586Z,7.00
2017-11-19T16:30:08.946Z,7.11
2017-11-19T16:31:08.682Z,7.18
2017-11-19T16:33:01.280Z,7.18
2017-11-19T16:34:01.224Z,7.23
2017-11-19T16:35:54.057Z,7.18
2017-11-19T16:36:53.921Z,7.19
2017-11-19T16:38:46.685Z,7.09
2017-11-19T16:39:46.613Z,6.99
2017-11-19T16:41:39.397Z,6.90
2017-11-19T16:42:39.335Z,6.79
2017-11-19T16:44:32.093Z,6.76
2017-11-19T16:45:32.013Z,6.76
2017-11-19T16:47:24.798Z,6.78
2017-11-19T16:48:24.726Z,6.73
2017-11-19T16:50:17.480Z,6.78
2017-11-19T16:51:17.408Z,6.76
2017-11-19T16:53:10.173Z,6.76
2017-11-19T16:54:10.111Z,6.81
2017-11-19T16:56:02.916Z,6.82
2017-11-19T16:57:02.809Z,6.72
2017-11-19T16:58:55.577Z,6.73
2017-11-19T16:59:55.506Z,6.73
2017-11-19T17:01:48.316Z,6.75
2017-11-19T17:02:48.227Z,6.93
2017-11-19T17:04:41.063Z,6.96
2017-11-19T17:05:40.923Z,6.94
2017-11-19T17:07:33.692Z,6.78
2017-11-19T17:08:33.616Z,6.72
2017-11-19T17:10:26.429Z,6.60
2017-11-19T17:11:26.325Z,6.58
2017-11-19T17:13:19.136Z,6.57
2017-11-19T17:14:19.023Z,6.58
2017-11-19T17:16:11.788Z,6.58
2017-11-19T17:17:11.728Z,6.50
2017-11-19T17:19:04.516Z,6.58
2017-11-19T17:20:04.449Z,6.55
2017-11-19T17:21:57.253Z,6.57
2017-11-19T17:22:57.141Z,6.60
2017-11-19T17:24:49.899Z,6.60
2017-11-19T17:25:49.850Z,6.48
2017-11-19T17:27:42.603Z,6.38
2017-11-19T17:28:42.561Z,6.33
2017-11-19T17:30:35.325Z,6.53
2017-11-19T17:31:36.352Z,6.42
2017-11-19T17:33:34.573Z,6.50
2017-11-19T17:36:27.149Z,6.30
2017-11-19T17:37:28.314Z,6.24
2017-11-19T17:39:24.292Z,6.17
2017-11-19T17:40:22.800Z,6.17
2017-11-19T17:42:21.231Z,6.10
2017-11-19T17:43:17.827Z,6.13
2017-11-19T17:45:12.482Z,6.14
2017-11-19T17:46:12.482Z,6.20
2017-11-19T17:48:10.376Z,6.10
2017-11-19T17:51:06.097Z,6.10
2017-11-19T17:52:03.610Z,6.13
2017-11-19T17:53:59.604Z,6.25
2017-11-19T17:55:00.094Z,6.17
2017-11-19T17:56:54.070Z,6.27
2017-11-19T18:00:10.219Z,6.40
2017-11-19T18:01:08.219Z,6.38
2017-11-19T18:03:05.961Z,6.36
2017-11-19T18:10:08.919Z,6.08
2017-11-19T18:11:08.827Z,6.06
2017-11-19T18:13:01.593Z,6.03
2017-11-19T18:14:01.528Z,6.01
2017-11-19T18:15:54.283Z,6.01
2017-11-19T18:16:54.228Z,5.99
2017-11-19T18:18:46.987Z,5.98
2017-11-19T18:19:46.903Z,5.95
2017-11-19T18:21:39.668Z,5.88
2017-11-19T18:22:39.592Z,5.93
2017-11-19T18:24:32.363Z,5.85
2017-11-19T18:25:32.285Z,5.90
2017-11-19T18:27:25.045Z,5.87
2017-11-19T18:28:24.983Z,5.88
2017-11-19T18:30:17.747Z,5.93
2017-11-19T18:31:17.682Z,5.81
2017-11-19T18:33:10.441Z,5.90
2017-11-19T18:34:10.386Z,5.87
2017-11-19T18:36:03.146Z,5.88
2017-11-19T18:37:03.064Z,5.90
2017-11-19T18:38:55.851Z,5.90
2017-11-19T18:39:55.748Z,5.84
2017-11-19T18:40:55.687Z,5.78
2017-11-19T18:41:55.626Z,5.83